createdAt,value
2022-08-19T00:03:08.949Z,18.90
2022-08-19T00:08:10.876Z,18.90
2022-08-19T00:13:12.740Z,18.90
2022-08-19T00:18:16.045Z,19.00
2022-08-19T00:23:17.899Z,19.00
2022-08-19T00:28:20.100Z,19.10
2022-08-19T00:33:23.431Z,19.00
2022-08-19T00:38:36.307Z,18.90
2022-08-19T00:43:39.812Z,18.90
2022-08-19T00:48:43.055Z,18.90
2022-08-19T00:53:44.899Z,18.90
2022-08-19T00:58:47.271Z,18.80
2022-08-19T01:03:57.848Z,18.80
2022-08-19T01:09:00.841Z,18.80
2022-08-19T01:14:03.827Z,18.80
2022-08-19T01:19:12.599Z,18.80
2022-08-19T01:24:16.395Z,18.80
2022-08-19T01:29:18.452Z,18.80
2022-08-19T01:34:22.153Z,18.90
2022-08-19T01:39:26.352Z,18.90
2022-08-19T01:44:28.216Z,18.90
2022-08-19T01:49:30.548Z,18.90
2022-08-19T01:54:34.374Z,18.90
2022-08-19T01:59:36.749Z,18.90
2022-08-19T02:04:38.853Z,18.90
2022-08-19T02:09:42.245Z,18.90
2022-08-19T02:14:44.233Z,18.90
2022-08-19T02:19:46.045Z,18.90
2022-08-19T02:24:49.409Z,18.90
2022-08-19T02:29:52.021Z,19.00
2022-08-19T02:34:54.058Z,19.00
2022-08-19T02:39:57.740Z,18.90
2022-08-19T02:44:59.668Z,18.70
2022-08-19T02:50:02.792Z,18.70
2022-08-19T02:55:07.485Z,18.60
2022-08-19T03:00:10.660Z,18.50
2022-08-19T03:05:12.571Z,18.40
2022-08-19T03:10:15.879Z,18.50
2022-08-19T03:15:17.725Z,18.50
2022-08-19T03:20:19.684Z,18.50
2022-08-19T03:25:22.973Z,18.50
2022-08-19T03:30:24.849Z,18.40
2022-08-19T03:35:27.200Z,18.30
2022-08-19T03:40:30.697Z,18.20
2022-08-19T03:45:32.526Z,18.20
2022-08-19T03:50:39.127Z,18.10
2022-08-19T03:55:42.790Z,18.10
2022-08-19T04:00:44.697Z,18.10
2022-08-19T04:05:47.354Z,18.00
2022-08-19T04:10:50.766Z,18.00
2022-08-19T04:15:52.591Z,17.90
2022-08-19T04:20:54.467Z,18.00
2022-08-19T04:25:58.519Z,17.90
2022-08-19T04:31:00.714Z,17.90
2022-08-19T04:36:02.687Z,17.90
2022-08-19T04:41:06.102Z,17.80
2022-08-19T04:46:09.255Z,17.90
2022-08-19T04:51:12.914Z,18.00
2022-08-19T04:56:18.448Z,18.00
2022-08-19T05:01:23.887Z,17.90
2022-08-19T05:06:25.752Z,17.90
2022-08-19T05:11:31.245Z,17.90
2022-08-19T05:16:33.144Z,17.90
2022-08-19T05:21:36.237Z,17.90
2022-08-19T05:26:40.879Z,17.90
2022-08-19T05:31:43.004Z,18.10
2022-08-19T05:36:46.079Z,18.40
2022-08-19T05:41:52.345Z,18.60
2022-08-19T05:46:54.195Z,18.80
2022-08-19T05:51:56.650Z,19.00
2022-08-19T05:57:01.749Z,19.10
2022-08-19T06:02:03.786Z,19.30
2022-08-19T06:07:12.508Z,19.30
2022-08-19T06:12:16.308Z,19.50
2022-08-19T06:17:21.023Z,19.60
2022-08-19T06:22:23.019Z,19.70
2022-08-19T06:27:26.284Z,19.90
2022-08-19T06:32:28.319Z,20.20
2022-08-19T06:37:30.161Z,20.40
2022-08-19T06:42:33.459Z,20.50
2022-08-19T06:47:36.767Z,20.60
2022-08-19T06:52:39.285Z,20.70
2022-08-19T06:57:43.652Z,20.80
2022-08-19T07:02:50.612Z,21.00
2022-08-19T07:08:04.642Z,21.20
2022-08-19T07:13:08.429Z,21.20
2022-08-19T07:18:11.777Z,21.30
2022-08-19T07:23:16.212Z,21.40
2022-08-19T07:28:23.889Z,21.50
2022-08-19T07:33:27.908Z,21.80
2022-08-19T07:38:29.971Z,22.00
2022-08-19T07:43:34.731Z,22.20
2022-08-19T07:48:36.972Z,22.40
2022-08-19T07:53:41.991Z,22.40
2022-08-19T07:58:47.028Z,22.70
2022-08-19T08:03:49.877Z,23.00
2022-08-19T08:08:51.761Z,23.10
2022-08-19T08:14:00.908Z,23.50
2022-08-19T08:19:14.733Z,24.00
2022-08-19T08:24:23.256Z,24.40
2022-08-19T08:29:34.818Z,24.60
2022-08-19T08:34:37.835Z,24.90
2022-08-19T08:39:39.882Z,24.80
2022-08-19T08:56:27.354Z,23.90
2022-08-19T09:01:30.940Z,24.30
2022-08-19T09:06:40.739Z,24.40
2022-08-19T09:11:57.290Z,25.00
2022-08-19T09:17:00.073Z,25.10
2022-08-19T09:22:02.030Z,24.90
2022-08-19T09:27:18.168Z,25.70
2022-08-19T09:32:26.214Z,26.20
2022-08-19T09:37:29.043Z,26.40
2022-08-19T09:42:36.084Z,26.70
2022-08-19T09:47:38.178Z,26.20
2022-08-19T09:52:42.462Z,25.50
2022-08-19T09:57:58.423Z,25.30
2022-08-19T10:03:00.264Z,25.60
2022-08-19T10:08:04.473Z,26.20
2022-08-19T10:13:20.001Z,26.10
2022-08-19T10:18:23.127Z,26.30
2022-08-19T10:23:25.055Z,26.30
2022-08-19T10:28:28.389Z,26.70
2022-08-19T10:33:40.891Z,27.10
2022-08-19T10:38:56.934Z,27.10
2022-08-19T10:44:04.671Z,27.00
2022-08-19T10:49:07.028Z,27.20
2022-08-19T10:54:12.585Z,27.60
2022-08-19T10:59:17.475Z,27.90
2022-08-19T11:04:20.277Z,28.30
2022-08-19T11:09:24.527Z,28.80
2022-08-19T11:14:27.851Z,28.80
2022-08-19T11:19:35.112Z,28.90
2022-08-19T11:24:37.687Z,29.10
2022-08-19T11:29:41.246Z,29.30
2022-08-19T11:34:43.136Z,29.50
2022-08-19T11:39:45.192Z,29.40
2022-08-19T11:44:56.875Z,29.10
2022-08-19T11:49:58.695Z,29.30
2022-08-19T11:55:00.751Z,29.40
2022-08-19T12:00:05.727Z,29.30
2022-08-19T12:05:12.248Z,29.50
2022-08-19T12:10:14.886Z,29.30
2022-08-19T12:15:22.484Z,29.60
2022-08-19T12:20:25.618Z,29.60
2022-08-19T12:25:27.584Z,29.80
2022-08-19T12:30:30.811Z,30.00
2022-08-19T12:35:33.684Z,30.10
2022-08-19T12:40:35.580Z,30.30
2022-08-19T12:45:40.321Z,29.80
2022-08-19T12:50:45.555Z,29.60
2022-08-19T12:55:47.539Z,29.00
2022-08-19T13:00:52.005Z,28.90
2022-08-19T13:05:53.714Z,29.30
2022-08-19T13:10:55.651Z,29.80
2022-08-19T13:16:01.472Z,30.20
2022-08-19T13:21:04.547Z,30.30
2022-08-19T13:26:08.247Z,29.40
2022-08-19T13:31:11.441Z,29.40
2022-08-19T13:36:13.351Z,28.60
2022-08-19T13:41:15.296Z,28.00
2022-08-19T13:46:18.729Z,28.30
2022-08-19T13:51:20.540Z,28.80
2022-08-19T13:56:26.085Z,29.30
2022-08-19T14:01:29.923Z,29.70
2022-08-19T14:06:31.813Z,29.00
2022-08-19T14:11:33.675Z,29.40
2022-08-19T14:16:36.986Z,29.70
2022-08-19T14:21:41.642Z,30.10
2022-08-19T14:26:43.647Z,30.50
2022-08-19T14:31:47.048Z,30.70
2022-08-19T14:36:49.107Z,30.70
2022-08-19T14:41:52.028Z,30.60
2022-08-19T14:46:55.220Z,30.40
2022-08-19T14:51:57.141Z,30.40
2022-08-19T14:56:58.971Z,30.60
2022-08-19T15:02:34.107Z,30.10
2022-08-19T15:07:24.141Z,29.50
2022-08-19T15:12:30.749Z,28.70
2022-08-19T15:17:45.518Z,28.30
2022-08-19T15:22:56.114Z,28.00
2022-08-19T15:33:46.044Z,27.80
2022-08-19T15:38:47.895Z,28.00
2022-08-19T15:43:52.336Z,28.30
2022-08-19T15:48:59.667Z,28.60
2022-08-19T15:54:02.476Z,28.50
2022-08-19T15:59:04.315Z,28.70
2022-08-19T16:04:11.111Z,28.90
2022-08-19T16:09:22.093Z,29.00
2022-08-19T16:14:27.228Z,29.10
2022-08-19T16:19:30.585Z,29.00
2022-08-19T16:24:32.839Z,29.00
2022-08-19T16:29:39.285Z,28.80
2022-08-19T16:34:43.512Z,28.60
2022-08-19T16:39:48.401Z,28.60
2022-08-19T16:44:50.268Z,28.50
2022-08-19T16:49:55.475Z,28.40
2022-08-19T16:54:57.605Z,28.20
2022-08-19T16:59:59.525Z,28.00
2022-08-19T17:05:02.897Z,27.90
2022-08-19T17:10:05.865Z,27.80
2022-08-19T17:15:08.466Z,27.60
2022-08-19T17:20:11.984Z,27.50
2022-08-19T17:25:13.860Z,27.30
2022-08-19T17:30:15.836Z,27.20
2022-08-19T17:35:23.921Z,27.10
2022-08-19T17:40:26.327Z,27.00
2022-08-19T17:45:32.228Z,26.90
2022-08-19T17:50:36.351Z,26.70
2022-08-19T17:55:38.137Z,26.60
2022-08-19T18:00:54.030Z,26.40
2022-08-19T18:43:45.418Z,25.00
2022-08-19T18:48:49.571Z,24.80
2022-08-19T18:53:51.496Z,24.60
2022-08-19T18:58:55.052Z,24.50
2022-08-19T19:04:00.345Z,24.20
2022-08-19T19:09:02.337Z,24.00
2022-08-19T19:14:07.179Z,23.80
2022-08-19T19:24:45.071Z,23.50
2022-08-19T19:29:52.085Z,23.40
2022-08-19T19:34:54.630Z,23.30
2022-08-19T19:39:59.393Z,23.30
2022-08-19T19:45:02.783Z,23.10
2022-08-19T19:50:14.995Z,23.00
2022-08-19T19:55:19.195Z,23.00
2022-08-19T20:00:22.411Z,23.10
2022-08-19T20:05:25.451Z,23.00
2022-08-19T20:10:27.220Z,22.80
2022-08-19T20:15:30.823Z,22.60
2022-08-19T20:20:32.776Z,22.40
2022-08-19T20:25:36.590Z,22.10
2022-08-19T20:30:46.283Z,21.90
2022-08-19T20:36:00.178Z,21.70
2022-08-19T20:41:02.462Z,21.50
2022-08-19T20:46:07.035Z,21.40
2022-08-19T20:51:14.100Z,21.30
2022-08-19T20:56:15.904Z,21.20
2022-08-19T21:01:19.811Z,21.20
2022-08-19T21:06:23.115Z,21.10
2022-08-19T21:11:25.184Z,20.90
2022-08-19T21:16:28.386Z,20.80
2022-08-19T21:21:42.525Z,20.70
2022-08-19T21:26:47.176Z,20.60
2022-08-19T21:31:57.339Z,20.50
2022-08-19T21:36:59.138Z,20.40
2022-08-19T21:42:00.975Z,20.30
2022-08-19T21:47:04.429Z,20.40
2022-08-19T21:52:06.522Z,20.40
2022-08-19T21:57:10.666Z,20.30
2022-08-19T22:02:22.122Z,20.20
2022-08-19T22:07:24.060Z,19.90
2022-08-19T22:12:29.316Z,19.90
2022-08-19T22:17:32.656Z,20.00
2022-08-19T22:22:35.017Z,20.20
2022-08-19T22:27:37.564Z,20.30
2022-08-19T22:32:45.154Z,20.30
2022-08-19T22:37:46.962Z,20.40
2022-08-19T22:42:48.740Z,20.50
2022-08-19T22:47:52.057Z,20.50
2022-08-19T22:52:56.593Z,20.50
2022-08-19T22:57:58.629Z,20.50
2022-08-19T23:03:01.873Z,20.50
2022-08-19T23:08:04.133Z,20.60
2022-08-19T23:13:06.094Z,20.70
2022-08-19T23:18:09.661Z,20.60
2022-08-19T23:23:14.710Z,20.60
2022-08-19T23:28:16.515Z,20.50
2022-08-19T23:33:22.017Z,20.50
2022-08-19T23:38:26.401Z,20.40
2022-08-19T23:43:28.853Z,20.30
2022-08-19T23:48:33.649Z,20.20
2022-08-19T23:53:36.704Z,20.10
2022-08-19T23:58:39.034Z,20.00
